Conroe's Hourly Summary for Wednesday, July 11, 2018
Hour Temp
(f)
RH
(%)
Solar Rad.
(MJ/m2)
Rainfall
(in)
Wind
(mph)
7/11/2018 12:00 AM 78 76 0 0 0.06
7/11/2018 1:00 AM 77 78 0 0 0.02
7/11/2018 2:00 AM 76 81 0 0 0.02
7/11/2018 3:00 AM 75 84 0 0 0.04
7/11/2018 4:00 AM 75 85 0 0 0
7/11/2018 5:00 AM 73 89 0 0 0
7/11/2018 6:00 AM 73 92 0.02 0 0
7/11/2018 7:00 AM 75 82 0.29 0 0.04
7/11/2018 8:00 AM 79 75 0.94 0 1.11
7/11/2018 9:00 AM 80 69 0.94 0 1.2
7/11/2018 10:00 AM 83 62 1.56 0 0.86
7/11/2018 11:00 AM 85 51 2.51 0 0.98
7/11/2018 12:00 PM 87 45 3.18 0 1.42
7/11/2018 1:00 PM 88 45 3.13 0 1.73
7/11/2018 2:00 PM 90 41 3.04 0 1.53
7/11/2018 3:00 PM 90 40 2.72 0 0.94
7/11/2018 4:00 PM 92 39 2.55 0 1.16
7/11/2018 5:00 PM 90 42 1.45 0 1
7/11/2018 6:00 PM 88 47 0.74 0 1.1
7/11/2018 7:00 PM 86 53 0.17 0 0.35
7/11/2018 8:00 PM 82 60 0.02 0 0
7/11/2018 9:00 PM 79 77 0 0 0
7/11/2018 10:00 PM 78 77 0 0 0
7/11/2018 11:00 PM 79 79 0 0 0.25
Data Summary 81 65 23.26 0.00 0.58